Weather at Voysil Airfield [CLOSED]

Public forecast

Using degrees Celsius for public forecast. Weather courtesy of forecast.io.

Closest aviation weather report (METAR) to Voysil Airfield

Closest report is Graf Ignatievo Air Base, 5.5 nm (10.2 km) NE.

2024/05/19 07:00 (retrieved 44 minutes ago)

LBPG 190700Z 09006KT 5000 RA OVC006 14/13 Q1016

Closest aviation forecast (TAF) to Voysil Airfield

Closest forecast is Plovdiv International Airport, 13.0 nm (24.1 km) SE.

2024/05/19 06:18 (retrieved 1 hour ago)

TAF LBPD 190500Z 1906/2006 VRB04KT 9999 SCT010 OVC025 TEMPO 1906/1912 5000 RA PROB30 1909/1912 11008KT 3000 TSRA SCT030CB BKN040